sensor_id;sensor_type;location;lat;lon;timestamp;P1;durP1;ratioP1;P2;durP2;ratioP2
60612;SDS011;46443;59.792;17.626;2023-07-20T00:00:54;2.53;;;1.20;;
60612;SDS011;46443;59.792;17.626;2023-07-20T00:03:20;2.20;;;1.33;;
60612;SDS011;46443;59.792;17.626;2023-07-20T00:05:50;2.93;;;1.30;;
60612;SDS011;46443;59.792;17.626;2023-07-20T00:08:17;1.47;;;1.27;;
60612;SDS011;46443;59.792;17.626;2023-07-20T00:10:43;1.50;;;1.20;;
60612;SDS011;46443;59.792;17.626;2023-07-20T00:13:10;2.10;;;1.37;;
60612;SDS011;46443;59.792;17.626;2023-07-20T00:15:37;2.30;;;1.50;;
60612;SDS011;46443;59.792;17.626;2023-07-20T00:18:03;2.17;;;1.30;;
60612;SDS011;46443;59.792;17.626;2023-07-20T00:20:30;2.00;;;1.23;;
60612;SDS011;46443;59.792;17.626;2023-07-20T00:22:56;3.83;;;1.60;;
60612;SDS011;46443;59.792;17.626;2023-07-20T00:25:25;2.10;;;1.00;;
60612;SDS011;46443;59.792;17.626;2023-07-20T00:27:51;1.87;;;1.10;;
60612;SDS011;46443;59.792;17.626;2023-07-20T00:30:18;3.93;;;1.40;;
60612;SDS011;46443;59.792;17.626;2023-07-20T00:32:44;3.63;;;1.53;;
60612;SDS011;46443;59.792;17.626;2023-07-20T00:35:10;2.47;;;1.33;;
60612;SDS011;46443;59.792;17.626;2023-07-20T00:37:37;1.90;;;1.20;;
60612;SDS011;46443;59.792;17.626;2023-07-20T00:40:03;3.13;;;1.73;;
60612;SDS011;46443;59.792;17.626;2023-07-20T00:42:30;4.53;;;1.70;;
60612;SDS011;46443;59.792;17.626;2023-07-20T00:44:56;5.70;;;1.50;;
60612;SDS011;46443;59.792;17.626;2023-07-20T00:47:22;2.20;;;1.50;;
60612;SDS011;46443;59.792;17.626;2023-07-20T00:49:48;3.53;;;1.27;;
60612;SDS011;46443;59.792;17.626;2023-07-20T00:52:16;3.93;;;1.53;;
60612;SDS011;46443;59.792;17.626;2023-07-20T00:54:42;2.40;;;1.40;;
60612;SDS011;46443;59.792;17.626;2023-07-20T00:57:08;3.20;;;1.20;;
60612;SDS011;46443;59.792;17.626;2023-07-20T00:59:35;1.93;;;1.40;;
60612;SDS011;46443;59.792;17.626;2023-07-20T01:02:01;3.17;;;1.50;;
60612;SDS011;46443;59.792;17.626;2023-07-20T01:04:28;2.70;;;1.40;;
60612;SDS011;46443;59.792;17.626;2023-07-20T01:07:10;3.83;;;1.47;;
60612;SDS011;46443;59.792;17.626;2023-07-20T01:09:39;2.20;;;1.50;;
60612;SDS011;46443;59.792;17.626;2023-07-20T01:12:09;3.83;;;1.40;;
60612;SDS011;46443;59.792;17.626;2023-07-20T01:14:38;3.43;;;1.40;;
60612;SDS011;46443;59.792;17.626;2023-07-20T01:17:04;3.00;;;1.60;;
60612;SDS011;46443;59.792;17.626;2023-07-20T01:19:30;2.03;;;1.20;;
60612;SDS011;46443;59.792;17.626;2023-07-20T01:24:38;3.30;;;1.57;;
60612;SDS011;46443;59.792;17.626;2023-07-20T01:32:16;3.33;;;1.60;;
60612;SDS011;46443;59.792;17.626;2023-07-20T01:34:43;3.77;;;1.60;;
60612;SDS011;46443;59.792;17.626;2023-07-20T01:37:10;3.23;;;1.40;;
60612;SDS011;46443;59.792;17.626;2023-07-20T01:39:36;6.07;;;1.53;;
60612;SDS011;46443;59.792;17.626;2023-07-20T01:42:03;1.93;;;1.40;;
60612;SDS011;46443;59.792;17.626;2023-07-20T01:44:29;5.40;;;1.80;;
60612;SDS011;46443;59.792;17.626;2023-07-20T01:46:55;2.53;;;1.50;;
60612;SDS011;46443;59.792;17.626;2023-07-20T01:49:21;3.30;;;1.60;;
60612;SDS011;46443;59.792;17.626;2023-07-20T01:51:47;3.13;;;1.53;;
60612;SDS011;46443;59.792;17.626;2023-07-20T01:54:13;2.50;;;1.50;;
60612;SDS011;46443;59.792;17.626;2023-07-20T01:56:39;3.30;;;1.67;;
60612;SDS011;46443;59.792;17.626;2023-07-20T01:59:05;4.73;;;1.50;;
60612;SDS011;46443;59.792;17.626;2023-07-20T02:01:31;4.87;;;1.80;;
60612;SDS011;46443;59.792;17.626;2023-07-20T02:03:58;3.93;;;1.60;;
60612;SDS011;46443;59.792;17.626;2023-07-20T02:06:24;3.67;;;1.50;;
60612;SDS011;46443;59.792;17.626;2023-07-20T02:08:50;3.97;;;2.00;;
60612;SDS011;46443;59.792;17.626;2023-07-20T02:11:16;4.03;;;1.53;;
60612;SDS011;46443;59.792;17.626;2023-07-20T02:13:42;3.10;;;1.80;;
60612;SDS011;46443;59.792;17.626;2023-07-20T02:16:08;2.73;;;1.50;;
60612;SDS011;46443;59.792;17.626;2023-07-20T02:18:36;3.17;;;1.87;;
60612;SDS011;46443;59.792;17.626;2023-07-20T02:21:02;4.47;;;1.70;;
60612;SDS011;46443;59.792;17.626;2023-07-20T02:23:28;4.10;;;1.60;;
60612;SDS011;46443;59.792;17.626;2023-07-20T02:25:54;2.67;;;1.43;;
60612;SDS011;46443;59.792;17.626;2023-07-20T02:28:20;3.70;;;1.90;;
60612;SDS011;46443;59.792;17.626;2023-07-20T02:30:46;3.20;;;1.63;;
60612;SDS011;46443;59.792;17.626;2023-07-20T02:33:15;3.97;;;1.80;;
60612;SDS011;46443;59.792;17.626;2023-07-20T02:35:41;2.50;;;1.87;;
60612;SDS011;46443;59.792;17.626;2023-07-20T02:38:07;5.10;;;1.93;;
60612;SDS011;46443;59.792;17.626;2023-07-20T02:40:33;2.40;;;1.50;;
60612;SDS011;46443;59.792;17.626;2023-07-20T02:42:59;2.60;;;1.57;;
60612;SDS011;46443;59.792;17.626;2023-07-20T02:45:25;5.33;;;1.70;;
60612;SDS011;46443;59.792;17.626;2023-07-20T02:47:51;4.90;;;1.70;;
60612;SDS011;46443;59.792;17.626;2023-07-20T02:50:17;5.00;;;1.70;;
60612;SDS011;46443;59.792;17.626;2023-07-20T02:52:43;2.53;;;1.40;;
60612;SDS011;46443;59.792;17.626;2023-07-20T02:55:10;3.43;;;1.67;;
60612;SDS011;46443;59.792;17.626;2023-07-20T02:57:36;2.53;;;1.60;;
60612;SDS011;46443;59.792;17.626;2023-07-20T03:00:03;3.43;;;1.67;;
60612;SDS011;46443;59.792;17.626;2023-07-20T03:02:32;4.70;;;1.73;;
60612;SDS011;46443;59.792;17.626;2023-07-20T03:04:58;5.07;;;1.77;;
60612;SDS011;46443;59.792;17.626;2023-07-20T03:07:26;4.07;;;1.70;;
60612;SDS011;46443;59.792;17.626;2023-07-20T03:09:53;5.37;;;1.60;;
60612;SDS011;46443;59.792;17.626;2023-07-20T03:12:20;3.97;;;1.80;;
60612;SDS011;46443;59.792;17.626;2023-07-20T03:14:47;2.77;;;1.57;;
60612;SDS011;46443;59.792;17.626;2023-07-20T03:17:13;5.67;;;1.90;;
60612;SDS011;46443;59.792;17.626;2023-07-20T03:19:40;3.93;;;1.90;;
60612;SDS011;46443;59.792;17.626;2023-07-20T03:22:06;4.60;;;1.80;;
60612;SDS011;46443;59.792;17.626;2023-07-20T03:24:32;4.93;;;1.83;;
60612;SDS011;46443;59.792;17.626;2023-07-20T03:26:58;5.80;;;1.80;;
60612;SDS011;46443;59.792;17.626;2023-07-20T03:29:24;3.93;;;1.70;;
60612;SDS011;46443;59.792;17.626;2023-07-20T03:31:51;5.13;;;2.20;;
60612;SDS011;46443;59.792;17.626;2023-07-20T03:34:17;3.87;;;1.70;;
60612;SDS011;46443;59.792;17.626;2023-07-20T03:36:43;6.03;;;1.80;;
60612;SDS011;46443;59.792;17.626;2023-07-20T03:39:09;3.90;;;1.60;;
60612;SDS011;46443;59.792;17.626;2023-07-20T03:41:35;5.23;;;2.07;;
60612;SDS011;46443;59.792;17.626;2023-07-20T03:44:02;3.70;;;1.90;;
60612;SDS011;46443;59.792;17.626;2023-07-20T03:46:28;5.30;;;2.00;;
60612;SDS011;46443;59.792;17.626;2023-07-20T03:48:54;4.77;;;2.17;;
60612;SDS011;46443;59.792;17.626;2023-07-20T03:51:20;3.27;;;1.70;;
60612;SDS011;46443;59.792;17.626;2023-07-20T03:53:46;5.33;;;1.90;;
60612;SDS011;46443;59.792;17.626;2023-07-20T03:56:12;5.43;;;2.00;;
60612;SDS011;46443;59.792;17.626;2023-07-20T03:58:38;4.00;;;1.90;;
60612;SDS011;46443;59.792;17.626;2023-07-20T04:01:04;5.27;;;1.90;;
60612;SDS011;46443;59.792;17.626;2023-07-20T04:03:30;3.40;;;2.20;;
60612;SDS011;46443;59.792;17.626;2023-07-20T04:05:56;5.40;;;2.20;;
60612;SDS011;46443;59.792;17.626;2023-07-20T04:08:23;5.03;;;2.10;;
60612;SDS011;46443;59.792;17.626;2023-07-20T04:10:49;5.27;;;1.90;;
60612;SDS011;46443;59.792;17.626;2023-07-20T04:13:15;5.63;;;2.10;;
60612;SDS011;46443;59.792;17.626;2023-07-20T04:15:42;6.37;;;2.07;;
60612;SDS011;46443;59.792;17.626;2023-07-20T04:18:08;6.37;;;1.90;;
60612;SDS011;46443;59.792;17.626;2023-07-20T04:20:34;3.90;;;1.87;;
60612;SDS011;46443;59.792;17.626;2023-07-20T04:23:01;4.03;;;1.83;;
60612;SDS011;46443;59.792;17.626;2023-07-20T04:25:27;6.63;;;2.00;;
60612;SDS011;46443;59.792;17.626;2023-07-20T04:27:53;4.83;;;2.10;;
60612;SDS011;46443;59.792;17.626;2023-07-20T04:30:20;7.27;;;2.00;;
60612;SDS011;46443;59.792;17.626;2023-07-20T04:32:47;6.93;;;2.10;;
60612;SDS011;46443;59.792;17.626;2023-07-20T04:35:17;4.13;;;2.00;;
60612;SDS011;46443;59.792;17.626;2023-07-20T04:37:44;5.97;;;2.10;;
60612;SDS011;46443;59.792;17.626;2023-07-20T04:40:12;5.27;;;1.87;;
60612;SDS011;46443;59.792;17.626;2023-07-20T04:42:38;8.30;;;2.00;;
60612;SDS011;46443;59.792;17.626;2023-07-20T04:45:04;5.83;;;1.90;;
60612;SDS011;46443;59.792;17.626;2023-07-20T04:47:31;7.50;;;2.40;;
60612;SDS011;46443;59.792;17.626;2023-07-20T04:49:57;8.17;;;2.00;;
60612;SDS011;46443;59.792;17.626;2023-07-20T04:52:23;9.93;;;2.40;;
60612;SDS011;46443;59.792;17.626;2023-07-20T04:54:49;9.10;;;2.70;;
60612;SDS011;46443;59.792;17.626;2023-07-20T04:57:15;3.90;;;2.20;;
60612;SDS011;46443;59.792;17.626;2023-07-20T04:59:41;4.97;;;2.40;;
60612;SDS011;46443;59.792;17.626;2023-07-20T05:02:07;4.43;;;2.27;;
60612;SDS011;46443;59.792;17.626;2023-07-20T05:04:33;6.87;;;2.30;;
60612;SDS011;46443;59.792;17.626;2023-07-20T05:07:00;5.73;;;2.13;;
60612;SDS011;46443;59.792;17.626;2023-07-20T05:09:26;4.20;;;2.10;;
60612;SDS011;46443;59.792;17.626;2023-07-20T05:11:52;5.90;;;2.17;;
60612;SDS011;46443;59.792;17.626;2023-07-20T05:14:18;4.63;;;2.37;;
60612;SDS011;46443;59.792;17.626;2023-07-20T05:16:44;6.00;;;2.30;;
60612;SDS011;46443;59.792;17.626;2023-07-20T05:19:10;5.00;;;2.53;;
60612;SDS011;46443;59.792;17.626;2023-07-20T05:21:36;4.90;;;2.40;;
60612;SDS011;46443;59.792;17.626;2023-07-20T05:24:02;4.50;;;2.20;;
60612;SDS011;46443;59.792;17.626;2023-07-20T05:26:28;4.23;;;2.07;;
60612;SDS011;46443;59.792;17.626;2023-07-20T05:28:54;8.77;;;2.33;;
60612;SDS011;46443;59.792;17.626;2023-07-20T05:31:20;7.77;;;2.33;;
60612;SDS011;46443;59.792;17.626;2023-07-20T05:33:46;8.63;;;2.50;;
60612;SDS011;46443;59.792;17.626;2023-07-20T05:36:12;5.63;;;2.33;;
60612;SDS011;46443;59.792;17.626;2023-07-20T05:38:39;6.17;;;2.10;;
60612;SDS011;46443;59.792;17.626;2023-07-20T05:41:05;6.00;;;2.30;;
60612;SDS011;46443;59.792;17.626;2023-07-20T05:43:32;5.87;;;2.20;;
60612;SDS011;46443;59.792;17.626;2023-07-20T05:45:58;7.77;;;2.70;;
60612;SDS011;46443;59.792;17.626;2023-07-20T05:48:24;6.70;;;2.40;;
60612;SDS011;46443;59.792;17.626;2023-07-20T05:50:50;6.00;;;2.20;;
60612;SDS011;46443;59.792;17.626;2023-07-20T05:53:16;8.00;;;2.40;;
60612;SDS011;46443;59.792;17.626;2023-07-20T05:55:43;4.23;;;2.10;;
60612;SDS011;46443;59.792;17.626;2023-07-20T05:58:09;6.93;;;2.30;;
60612;SDS011;46443;59.792;17.626;2023-07-20T06:00:35;5.87;;;2.17;;
60612;SDS011;46443;59.792;17.626;2023-07-20T06:03:02;5.10;;;2.27;;
60612;SDS011;46443;59.792;17.626;2023-07-20T06:05:29;7.73;;;2.20;;
60612;SDS011;46443;59.792;17.626;2023-07-20T06:07:55;4.70;;;2.17;;
60612;SDS011;46443;59.792;17.626;2023-07-20T06:10:22;6.23;;;2.37;;
60612;SDS011;46443;59.792;17.626;2023-07-20T06:12:48;6.97;;;2.40;;
60612;SDS011;46443;59.792;17.626;2023-07-20T06:15:27;9.73;;;2.40;;
60612;SDS011;46443;59.792;17.626;2023-07-20T06:20:21;6.03;;;2.20;;
60612;SDS011;46443;59.792;17.626;2023-07-20T06:22:47;6.77;;;2.00;;
60612;SDS011;46443;59.792;17.626;2023-07-20T06:25:13;4.77;;;2.20;;
60612;SDS011;46443;59.792;17.626;2023-07-20T06:27:39;4.77;;;2.43;;
60612;SDS011;46443;59.792;17.626;2023-07-20T06:30:06;6.70;;;2.10;;
60612;SDS011;46443;59.792;17.626;2023-07-20T06:32:32;4.50;;;2.03;;
60612;SDS011;46443;59.792;17.626;2023-07-20T06:34:58;3.33;;;2.10;;
60612;SDS011;46443;59.792;17.626;2023-07-20T06:37:24;6.03;;;2.10;;
60612;SDS011;46443;59.792;17.626;2023-07-20T06:39:51;6.33;;;2.10;;
60612;SDS011;46443;59.792;17.626;2023-07-20T06:42:17;5.23;;;2.00;;
60612;SDS011;46443;59.792;17.626;2023-07-20T06:44:43;3.97;;;1.93;;
60612;SDS011;46443;59.792;17.626;2023-07-20T06:47:10;6.13;;;2.20;;
60612;SDS011;46443;59.792;17.626;2023-07-20T06:49:37;3.90;;;1.97;;
60612;SDS011;46443;59.792;17.626;2023-07-20T06:52:03;4.93;;;1.92;;
60612;SDS011;46443;59.792;17.626;2023-07-20T06:54:29;4.72;;;2.10;;
60612;SDS011;46443;59.792;17.626;2023-07-20T06:56:55;5.68;;;2.40;;
60612;SDS011;46443;59.792;17.626;2023-07-20T06:59:21;5.50;;;2.28;;
60612;SDS011;46443;59.792;17.626;2023-07-20T07:01:49;4.18;;;1.90;;
60612;SDS011;46443;59.792;17.626;2023-07-20T07:04:15;5.05;;;2.10;;
60612;SDS011;46443;59.792;17.626;2023-07-20T07:06:41;4.78;;;2.30;;
60612;SDS011;46443;59.792;17.626;2023-07-20T07:09:08;4.57;;;2.00;;
60612;SDS011;46443;59.792;17.626;2023-07-20T07:11:34;5.07;;;2.30;;
60612;SDS011;46443;59.792;17.626;2023-07-20T07:14:00;8.70;;;2.10;;
60612;SDS011;46443;59.792;17.626;2023-07-20T07:16:26;3.93;;;1.83;;
60612;SDS011;46443;59.792;17.626;2023-07-20T07:18:52;4.90;;;1.90;;
60612;SDS011;46443;59.792;17.626;2023-07-20T07:21:18;6.23;;;2.37;;
60612;SDS011;46443;59.792;17.626;2023-07-20T07:23:45;4.53;;;1.97;;
60612;SDS011;46443;59.792;17.626;2023-07-20T07:26:11;5.17;;;2.00;;
60612;SDS011;46443;59.792;17.626;2023-07-20T07:28:37;4.13;;;1.90;;
60612;SDS011;46443;59.792;17.626;2023-07-20T07:31:06;3.88;;;2.10;;
60612;SDS011;46443;59.792;17.626;2023-07-20T07:33:32;6.45;;;2.10;;
60612;SDS011;46443;59.792;17.626;2023-07-20T07:35:59;4.18;;;2.22;;
60612;SDS011;46443;59.792;17.626;2023-07-20T07:38:26;5.03;;;2.30;;
60612;SDS011;46443;59.792;17.626;2023-07-20T07:40:52;5.60;;;2.40;;
60612;SDS011;46443;59.792;17.626;2023-07-20T07:43:18;7.47;;;2.22;;
60612;SDS011;46443;59.792;17.626;2023-07-20T07:45:44;5.32;;;1.85;;
60612;SDS011;46443;59.792;17.626;2023-07-20T07:48:10;3.55;;;1.90;;
60612;SDS011;46443;59.792;17.626;2023-07-20T07:50:37;5.90;;;2.20;;
60612;SDS011;46443;59.792;17.626;2023-07-20T07:53:05;3.47;;;1.60;;
60612;SDS011;46443;59.792;17.626;2023-07-20T07:55:31;4.38;;;1.90;;
60612;SDS011;46443;59.792;17.626;2023-07-20T07:57:57;3.88;;;1.80;;
60612;SDS011;46443;59.792;17.626;2023-07-20T08:00:23;4.97;;;2.13;;
60612;SDS011;46443;59.792;17.626;2023-07-20T08:02:49;5.15;;;2.00;;
60612;SDS011;46443;59.792;17.626;2023-07-20T08:05:16;6.38;;;1.83;;
60612;SDS011;46443;59.792;17.626;2023-07-20T08:07:42;5.22;;;1.95;;
60612;SDS011;46443;59.792;17.626;2023-07-20T08:10:08;4.93;;;1.85;;
60612;SDS011;46443;59.792;17.626;2023-07-20T08:12:35;6.70;;;2.20;;
60612;SDS011;46443;59.792;17.626;2023-07-20T08:15:01;4.82;;;2.00;;
60612;SDS011;46443;59.792;17.626;2023-07-20T08:17:27;4.97;;;2.10;;
60612;SDS011;46443;59.792;17.626;2023-07-20T08:19:53;5.13;;;2.22;;
60612;SDS011;46443;59.792;17.626;2023-07-20T08:22:19;4.10;;;2.10;;
60612;SDS011;46443;59.792;17.626;2023-07-20T08:24:46;4.20;;;1.95;;
60612;SDS011;46443;59.792;17.626;2023-07-20T08:27:12;4.78;;;2.20;;
60612;SDS011;46443;59.792;17.626;2023-07-20T08:29:38;5.43;;;2.22;;
60612;SDS011;46443;59.792;17.626;2023-07-20T08:32:05;6.75;;;2.03;;
60612;SDS011;46443;59.792;17.626;2023-07-20T08:34:31;4.47;;;2.25;;
60612;SDS011;46443;59.792;17.626;2023-07-20T08:36:58;5.88;;;1.98;;
60612;SDS011;46443;59.792;17.626;2023-07-20T08:39:24;3.78;;;1.90;;
60612;SDS011;46443;59.792;17.626;2023-07-20T08:41:50;3.88;;;1.92;;
60612;SDS011;46443;59.792;17.626;2023-07-20T08:44:19;5.85;;;2.10;;
60612;SDS011;46443;59.792;17.626;2023-07-20T08:46:45;3.75;;;1.80;;
60612;SDS011;46443;59.792;17.626;2023-07-20T08:49:13;4.30;;;1.92;;
60612;SDS011;46443;59.792;17.626;2023-07-20T08:51:41;5.32;;;2.15;;
60612;SDS011;46443;59.792;17.626;2023-07-20T08:54:07;4.30;;;2.20;;
60612;SDS011;46443;59.792;17.626;2023-07-20T08:56:34;5.28;;;1.90;;
60612;SDS011;46443;59.792;17.626;2023-07-20T08:59:00;4.80;;;2.30;;
60612;SDS011;46443;59.792;17.626;2023-07-20T09:01:27;3.90;;;2.13;;
60612;SDS011;46443;59.792;17.626;2023-07-20T09:03:55;5.35;;;2.45;;
60612;SDS011;46443;59.792;17.626;2023-07-20T09:06:21;4.53;;;2.05;;
60612;SDS011;46443;59.792;17.626;2023-07-20T09:08:47;4.97;;;2.15;;
60612;SDS011;46443;59.792;17.626;2023-07-20T09:11:14;5.97;;;2.33;;
60612;SDS011;46443;59.792;17.626;2023-07-20T09:13:40;3.65;;;1.60;;
60612;SDS011;46443;59.792;17.626;2023-07-20T09:16:06;3.70;;;1.70;;
60612;SDS011;46443;59.792;17.626;2023-07-20T09:18:32;3.13;;;1.60;;
60612;SDS011;46443;59.792;17.626;2023-07-20T09:21:03;4.70;;;2.08;;
60612;SDS011;46443;59.792;17.626;2023-07-20T09:23:33;6.05;;;1.70;;
60612;SDS011;46443;59.792;17.626;2023-07-20T09:25:59;4.72;;;1.92;;
60612;SDS011;46443;59.792;17.626;2023-07-20T09:28:25;4.80;;;1.95;;
60612;SDS011;46443;59.792;17.626;2023-07-20T09:30:53;2.90;;;1.80;;
60612;SDS011;46443;59.792;17.626;2023-07-20T09:33:23;3.88;;;1.90;;
60612;SDS011;46443;59.792;17.626;2023-07-20T09:35:49;3.92;;;1.80;;
60612;SDS011;46443;59.792;17.626;2023-07-20T09:38:15;3.80;;;1.90;;
60612;SDS011;46443;59.792;17.626;2023-07-20T09:40:42;3.92;;;1.80;;
60612;SDS011;46443;59.792;17.626;2023-07-20T09:43:08;5.40;;;1.77;;
60612;SDS011;46443;59.792;17.626;2023-07-20T09:45:35;4.30;;;1.98;;
60612;SDS011;46443;59.792;17.626;2023-07-20T09:50:31;4.80;;;2.00;;
60612;SDS011;46443;59.792;17.626;2023-07-20T09:52:57;3.22;;;1.95;;
60612;SDS011;46443;59.792;17.626;2023-07-20T09:55:25;2.35;;;1.50;;
60612;SDS011;46443;59.792;17.626;2023-07-20T09:57:52;1.40;;;1.30;;
60612;SDS011;46443;59.792;17.626;2023-07-20T10:00:20;1.30;;;1.10;;
60612;SDS011;46443;59.792;17.626;2023-07-20T10:02:46;1.30;;;1.20;;
60612;SDS011;46443;59.792;17.626;2023-07-20T10:05:15;1.70;;;1.20;;
60612;SDS011;46443;59.792;17.626;2023-07-20T10:07:47;1.15;;;1.10;;
60612;SDS011;46443;59.792;17.626;2023-07-20T10:10:14;1.70;;;1.30;;
60612;SDS011;46443;59.792;17.626;2023-07-20T10:12:42;2.25;;;1.48;;
60612;SDS011;46443;59.792;17.626;2023-07-20T10:17:39;2.20;;;1.60;;
60612;SDS011;46443;59.792;17.626;2023-07-20T10:20:06;3.17;;;1.50;;
60612;SDS011;46443;59.792;17.626;2023-07-20T10:22:34;3.47;;;1.70;;
60612;SDS011;46443;59.792;17.626;2023-07-20T10:25:01;3.30;;;1.80;;
60612;SDS011;46443;59.792;17.626;2023-07-20T10:27:30;2.72;;;2.00;;
60612;SDS011;46443;59.792;17.626;2023-07-20T10:29:56;2.08;;;1.58;;
60612;SDS011;46443;59.792;17.626;2023-07-20T10:32:24;4.00;;;1.73;;
60612;SDS011;46443;59.792;17.626;2023-07-20T10:34:55;2.88;;;1.70;;
60612;SDS011;46443;59.792;17.626;2023-07-20T10:42:50;2.25;;;1.65;;
60612;SDS011;46443;59.792;17.626;2023-07-20T10:45:19;4.72;;;1.77;;
60612;SDS011;46443;59.792;17.626;2023-07-20T10:47:46;2.55;;;1.58;;
60612;SDS011;46443;59.792;17.626;2023-07-20T10:50:12;2.13;;;1.52;;
60612;SDS011;46443;59.792;17.626;2023-07-20T10:52:41;3.33;;;1.98;;
60612;SDS011;46443;59.792;17.626;2023-07-20T10:55:11;2.65;;;1.85;;
60612;SDS011;46443;59.792;17.626;2023-07-20T10:57:37;3.58;;;1.58;;
60612;SDS011;46443;59.792;17.626;2023-07-20T11:00:07;3.10;;;1.75;;
60612;SDS011;46443;59.792;17.626;2023-07-20T11:03:09;3.75;;;1.67;;
60612;SDS011;46443;59.792;17.626;2023-07-20T11:05:35;2.92;;;1.70;;
60612;SDS011;46443;59.792;17.626;2023-07-20T11:08:10;2.45;;;1.30;;
60612;SDS011;46443;59.792;17.626;2023-07-20T11:10:37;2.20;;;1.50;;
60612;SDS011;46443;59.792;17.626;2023-07-20T11:13:22;2.03;;;1.60;;
60612;SDS011;46443;59.792;17.626;2023-07-20T11:18:21;2.33;;;1.60;;
60612;SDS011;46443;59.792;17.626;2023-07-20T11:20:51;2.90;;;1.50;;
60612;SDS011;46443;59.792;17.626;2023-07-20T11:23:17;2.08;;;1.40;;
60612;SDS011;46443;59.792;17.626;2023-07-20T11:25:44;1.90;;;1.40;;
60612;SDS011;46443;59.792;17.626;2023-07-20T11:28:10;2.38;;;1.52;;
60612;SDS011;46443;59.792;17.626;2023-07-20T11:30:37;3.15;;;1.67;;
60612;SDS011;46443;59.792;17.626;2023-07-20T11:33:03;3.65;;;1.73;;
60612;SDS011;46443;59.792;17.626;2023-07-20T11:35:30;2.38;;;1.58;;
60612;SDS011;46443;59.792;17.626;2023-07-20T11:37:56;2.92;;;1.73;;
60612;SDS011;46443;59.792;17.626;2023-07-20T11:40:22;3.47;;;1.80;;
60612;SDS011;46443;59.792;17.626;2023-07-20T11:42:49;3.75;;;2.38;;
60612;SDS011;46443;59.792;17.626;2023-07-20T11:45:16;3.17;;;1.67;;
60612;SDS011;46443;59.792;17.626;2023-07-20T11:47:43;3.88;;;1.90;;
60612;SDS011;46443;59.792;17.626;2023-07-20T11:50:09;3.42;;;1.70;;
60612;SDS011;46443;59.792;17.626;2023-07-20T11:52:36;2.58;;;1.70;;
60612;SDS011;46443;59.792;17.626;2023-07-20T11:55:02;2.72;;;1.60;;
60612;SDS011;46443;59.792;17.626;2023-07-20T11:57:28;3.03;;;1.63;;
60612;SDS011;46443;59.792;17.626;2023-07-20T12:00:02;2.70;;;1.77;;
60612;SDS011;46443;59.792;17.626;2023-07-20T12:02:37;2.22;;;1.77;;
60612;SDS011;46443;59.792;17.626;2023-07-20T12:05:04;3.72;;;1.80;;
60612;SDS011;46443;59.792;17.626;2023-07-20T12:07:32;3.35;;;2.13;;
60612;SDS011;46443;59.792;17.626;2023-07-20T12:10:07;3.42;;;1.98;;
60612;SDS011;46443;59.792;17.626;2023-07-20T12:12:34;2.78;;;1.77;;
60612;SDS011;46443;59.792;17.626;2023-07-20T12:17:52;4.20;;;1.70;;
60612;SDS011;46443;59.792;17.626;2023-07-20T12:20:32;3.63;;;1.70;;
60612;SDS011;46443;59.792;17.626;2023-07-20T12:23:00;2.72;;;1.55;;
60612;SDS011;46443;59.792;17.626;2023-07-20T12:25:59;3.35;;;1.50;;
60612;SDS011;46443;59.792;17.626;2023-07-20T12:28:20;2.08;;;1.40;;
60612;SDS011;46443;59.792;17.626;2023-07-20T12:30:47;2.03;;;1.63;;
60612;SDS011;46443;59.792;17.626;2023-07-20T12:33:21;1.73;;;1.40;;
60612;SDS011;46443;59.792;17.626;2023-07-20T12:35:47;3.17;;;1.60;;
60612;SDS011;46443;59.792;17.626;2023-07-20T12:38:14;2.40;;;1.35;;
60612;SDS011;46443;59.792;17.626;2023-07-20T12:40:41;4.05;;;1.45;;
60612;SDS011;46443;59.792;17.626;2023-07-20T12:43:07;2.28;;;1.30;;
60612;SDS011;46443;59.792;17.626;2023-07-20T12:45:34;1.90;;;1.50;;
60612;SDS011;46443;59.792;17.626;2023-07-20T12:48:00;2.50;;;1.40;;
60612;SDS011;46443;59.792;17.626;2023-07-20T12:50:26;2.60;;;1.67;;
60612;SDS011;46443;59.792;17.626;2023-07-20T12:52:52;3.10;;;1.60;;
60612;SDS011;46443;59.792;17.626;2023-07-20T12:55:18;2.72;;;1.60;;
60612;SDS011;46443;59.792;17.626;2023-07-20T12:57:45;2.35;;;1.60;;
60612;SDS011;46443;59.792;17.626;2023-07-20T13:00:13;2.53;;;1.58;;
60612;SDS011;46443;59.792;17.626;2023-07-20T13:02:39;1.45;;;1.30;;
60612;SDS011;46443;59.792;17.626;2023-07-20T13:05:06;1.92;;;1.40;;
60612;SDS011;46443;59.792;17.626;2023-07-20T13:07:36;1.35;;;1.20;;
60612;SDS011;46443;59.792;17.626;2023-07-20T13:10:03;1.52;;;1.42;;
60612;SDS011;46443;59.792;17.626;2023-07-20T13:12:30;1.80;;;1.33;;
60612;SDS011;46443;59.792;17.626;2023-07-20T13:14:56;1.92;;;1.40;;
60612;SDS011;46443;59.792;17.626;2023-07-20T13:17:25;2.45;;;1.40;;
60612;SDS011;46443;59.792;17.626;2023-07-20T13:19:52;2.15;;;1.55;;
60612;SDS011;46443;59.792;17.626;2023-07-20T13:22:18;1.70;;;1.40;;
60612;SDS011;46443;59.792;17.626;2023-07-20T13:24:44;1.52;;;1.40;;
60612;SDS011;46443;59.792;17.626;2023-07-20T13:29:40;4.05;;;1.60;;
60612;SDS011;46443;59.792;17.626;2023-07-20T13:32:06;1.85;;;1.40;;
60612;SDS011;46443;59.792;17.626;2023-07-20T13:34:33;2.97;;;1.40;;
60612;SDS011;46443;59.792;17.626;2023-07-20T13:36:59;1.45;;;1.35;;
60612;SDS011;46443;59.792;17.626;2023-07-20T13:39:25;3.13;;;1.60;;
60612;SDS011;46443;59.792;17.626;2023-07-20T13:41:53;3.95;;;1.92;;
60612;SDS011;46443;59.792;17.626;2023-07-20T13:44:19;2.47;;;1.60;;
60612;SDS011;46443;59.792;17.626;2023-07-20T13:46:46;3.08;;;1.40;;
60612;SDS011;46443;59.792;17.626;2023-07-20T13:49:12;2.22;;;1.30;;
60612;SDS011;46443;59.792;17.626;2023-07-20T13:51:38;1.85;;;1.38;;
60612;SDS011;46443;59.792;17.626;2023-07-20T13:54:05;2.05;;;1.50;;
60612;SDS011;46443;59.792;17.626;2023-07-20T13:56:31;1.52;;;1.40;;
60612;SDS011;46443;59.792;17.626;2023-07-20T13:58:57;1.95;;;1.40;;
60612;SDS011;46443;59.792;17.626;2023-07-20T14:01:23;2.30;;;1.40;;
60612;SDS011;46443;59.792;17.626;2023-07-20T14:03:50;1.65;;;1.45;;
60612;SDS011;46443;59.792;17.626;2023-07-20T14:06:16;2.47;;;1.50;;
60612;SDS011;46443;59.792;17.626;2023-07-20T14:08:43;3.13;;;1.38;;
60612;SDS011;46443;59.792;17.626;2023-07-20T14:11:12;1.40;;;1.30;;
60612;SDS011;46443;59.792;17.626;2023-07-20T14:13:38;1.50;;;1.40;;
60612;SDS011;46443;59.792;17.626;2023-07-20T14:16:05;1.92;;;1.40;;
60612;SDS011;46443;59.792;17.626;2023-07-20T14:18:31;2.65;;;1.40;;
60612;SDS011;46443;59.792;17.626;2023-07-20T14:20:57;2.53;;;1.50;;
60612;SDS011;46443;59.792;17.626;2023-07-20T14:23:23;1.25;;;1.10;;
60612;SDS011;46443;59.792;17.626;2023-07-20T14:25:49;1.40;;;1.30;;
60612;SDS011;46443;59.792;17.626;2023-07-20T14:28:15;1.98;;;1.30;;
60612;SDS011;46443;59.792;17.626;2023-07-20T14:30:41;1.38;;;1.08;;
60612;SDS011;46443;59.792;17.626;2023-07-20T14:33:07;1.10;;;1.00;;
60612;SDS011;46443;59.792;17.626;2023-07-20T14:35:34;1.40;;;1.10;;
60612;SDS011;46443;59.792;17.626;2023-07-20T14:38:00;1.20;;;1.08;;
60612;SDS011;46443;59.792;17.626;2023-07-20T14:40:26;1.13;;;1.02;;
60612;SDS011;46443;59.792;17.626;2023-07-20T14:42:52;0.88;;;0.88;;
60612;SDS011;46443;59.792;17.626;2023-07-20T14:45:18;1.00;;;1.00;;
60612;SDS011;46443;59.792;17.626;2023-07-20T14:47:44;1.15;;;1.05;;
60612;SDS011;46443;59.792;17.626;2023-07-20T14:50:11;1.02;;;0.98;;
60612;SDS011;46443;59.792;17.626;2023-07-20T14:52:37;1.55;;;1.20;;
60612;SDS011;46443;59.792;17.626;2023-07-20T14:55:03;1.13;;;1.02;;
60612;SDS011;46443;59.792;17.626;2023-07-20T14:57:29;1.08;;;0.93;;
60612;SDS011;46443;59.792;17.626;2023-07-20T14:59:55;0.90;;;0.90;;